Time;durP1;ratioP1;P1;durP2;ratioP2;P2;SDS_P1;SDS_P2;PMS_P1;PMS_P2;Temp;Humidity;BMP_temperature;BMP_pressure;BME280_temperature;BME280_humidity;BME280_pressure;Samples;Min_cycle;Max_cycle;Signal;HPM_P1;HPM_P2
2023/08/29 00:01:20;;;;;;;0.00;0.00;;;;;;;;;;5092609;28;20097;-80
2023/08/29 00:03:46;;;;;;;0.00;0.00;;;;;;;;;;5093052;28;20058;-81
2023/08/29 00:06:12;;;;;;;0.00;0.00;;;;;;;;;;5092795;28;20044;-81
2023/08/29 00:08:38;;;;;;;0.00;0.00;;;;;;;;;;5092999;28;20116;-81
2023/08/29 00:11:04;;;;;;;0.00;0.00;;;;;;;;;;5092454;28;20036;-82
2023/08/29 00:13:30;;;;;;;0.00;0.00;;;;;;;;;;5091542;28;20041;-82
2023/08/29 00:15:56;;;;;;;0.00;0.00;;;;;;;;;;5091146;28;20102;-81
2023/08/29 00:18:22;;;;;;;0.00;0.00;;;;;;;;;;5091349;28;20052;-81
2023/08/29 00:20:49;;;;;;;0.00;0.00;;;;;;;;;;5091087;28;20051;-80
2023/08/29 00:23:15;;;;;;;0.00;0.00;;;;;;;;;;5091436;28;20079;-80
2023/08/29 00:25:41;;;;;;;0.00;0.00;;;;;;;;;;5091105;28;20043;-81
2023/08/29 00:28:07;;;;;;;0.00;0.00;;;;;;;;;;5092657;28;20044;-81
2023/08/29 00:30:37;;;;;;;0.00;0.00;;;;;;;;;;5090934;28;20036;-80
2023/08/29 00:33:03;;;;;;;0.00;0.00;;;;;;;;;;5091091;28;20055;-81
2023/08/29 00:35:29;;;;;;;0.00;0.00;;;;;;;;;;5090958;28;20050;-80
2023/08/29 00:37:55;;;;;;;0.00;0.00;;;;;;;;;;5092632;28;20097;-81
2023/08/29 00:40:21;;;;;;;0.00;0.00;;;;;;;;;;5091826;28;20105;-81
2023/08/29 00:42:48;;;;;;;0.00;0.00;;;;;;;;;;5090921;28;20141;-80
2023/08/29 00:45:14;;;;;;;0.00;0.00;;;;;;;;;;5091182;28;20079;-80
2023/08/29 00:47:40;;;;;;;0.00;0.00;;;;;;;;;;5092046;28;20076;-81
2023/08/29 00:50:07;;;;;;;0.00;0.00;;;;;;;;;;5092557;28;20036;-81
2023/08/29 00:52:33;;;;;;;0.00;0.00;;;;;;;;;;5092274;28;20079;-81
2023/08/29 00:54:59;;;;;;;0.00;0.00;;;;;;;;;;5091239;28;20048;-81
2023/08/29 00:57:25;;;;;;;0.00;0.00;;;;;;;;;;5090735;28;20048;-81
2023/08/29 00:59:51;;;;;;;0.00;0.00;;;;;;;;;;5091038;28;20032;-81
2023/08/29 01:02:18;;;;;;;0.00;0.00;;;;;;;;;;5092136;28;20382;-80
2023/08/29 01:04:44;;;;;;;0.00;0.00;;;;;;;;;;5090973;28;20080;-81
2023/08/29 01:07:10;;;;;;;0.00;0.00;;;;;;;;;;5092139;28;20040;-81
2023/08/29 01:09:38;;;;;;;0.00;0.00;;;;;;;;;;5092209;28;20044;-81
2023/08/29 01:12:04;;;;;;;0.00;0.00;;;;;;;;;;5090691;28;20122;-81
2023/08/29 01:14:36;;;;;;;0.00;0.00;;;;;;;;;;5090745;28;20106;-81
2023/08/29 01:17:08;;;;;;;0.00;0.00;;;;;;;;;;5092032;28;20052;-81
2023/08/29 01:19:36;;;;;;;0.00;0.00;;;;;;;;;;5092249;28;20046;-81
2023/08/29 01:22:02;;;;;;;0.00;0.00;;;;;;;;;;5092046;28;20476;-81
2023/08/29 01:24:38;;;;;;;0.00;0.00;;;;;;;;;;5090867;28;20044;-82
2023/08/29 01:27:05;;;;;;;0.00;0.00;;;;;;;;;;5090619;28;20074;-81
2023/08/29 01:29:32;;;;;;;0.00;0.00;;;;;;;;;;5090606;28;20083;-80
2023/08/29 01:31:59;;;;;;;0.00;0.00;;;;;;;;;;5090458;28;20043;-82
2023/08/29 01:34:25;;;;;;;0.00;0.00;;;;;;;;;;5092156;28;20086;-81
2023/08/29 01:36:51;;;;;;;0.00;0.00;;;;;;;;;;5090443;28;20036;-81
2023/08/29 01:39:17;;;;;;;0.00;0.00;;;;;;;;;;5090389;28;20044;-81
2023/08/29 01:41:43;;;;;;;0.00;0.00;;;;;;;;;;5090385;28;20063;-81
2023/08/29 01:44:09;;;;;;;0.00;0.00;;;;;;;;;;5092212;28;20047;-81
2023/08/29 01:46:36;;;;;;;0.00;0.00;;;;;;;;;;5091566;28;20506;-81
2023/08/29 01:49:03;;;;;;;0.00;0.00;;;;;;;;;;5090718;28;20123;-81
2023/08/29 01:51:29;;;;;;;0.00;0.00;;;;;;;;;;5090690;28;20039;-81
2023/08/29 01:53:55;;;;;;;0.00;0.00;;;;;;;;;;5095523;28;20048;-81
2023/08/29 01:56:23;;;;;;;0.00;0.00;;;;;;;;;;5094206;28;20060;-81
2023/08/29 01:58:52;;;;;;;0.00;0.00;;;;;;;;;;5094156;28;20051;-81
2023/08/29 02:01:18;;;;;;;0.00;0.00;;;;;;;;;;5093801;28;20036;-81
2023/08/29 02:03:44;;;;;;;0.00;0.00;;;;;;;;;;5094391;28;20036;-81
2023/08/29 02:06:10;;;;;;;0.00;0.00;;;;;;;;;;5094329;28;20040;-81
2023/08/29 02:08:36;;;;;;;0.00;0.00;;;;;;;;;;5093652;28;20036;-81
2023/08/29 02:11:02;;;;;;;0.00;0.00;;;;;;;;;;5093782;28;20044;-81
2023/08/29 02:13:28;;;;;;;0.00;0.00;;;;;;;;;;5077070;28;20051;-81
2023/08/29 02:15:54;;;;;;;0.00;0.00;;;;;;;;;;5094852;28;20048;-81
2023/08/29 02:18:20;;;;;;;0.00;0.00;;;;;;;;;;5093720;28;20074;-81
2023/08/29 02:20:46;;;;;;;0.00;0.00;;;;;;;;;;5094903;28;20071;-81
2023/08/29 02:23:12;;;;;;;0.00;0.00;;;;;;;;;;5094722;28;20054;-81
2023/08/29 02:25:38;;;;;;;0.00;0.00;;;;;;;;;;5095134;28;20434;-81
2023/08/29 02:28:04;;;;;;;0.00;0.00;;;;;;;;;;5094964;28;20040;-81
2023/08/29 02:30:30;;;;;;;0.00;0.00;;;;;;;;;;5094872;28;20067;-81
2023/08/29 02:32:56;;;;;;;0.00;0.00;;;;;;;;;;5094834;28;20383;-81
2023/08/29 02:35:22;;;;;;;0.00;0.00;;;;;;;;;;5093754;28;20040;-81
2023/08/29 02:37:50;;;;;;;0.00;0.00;;;;;;;;;;5094813;28;20043;-81
2023/08/29 02:40:16;;;;;;;0.00;0.00;;;;;;;;;;5095126;28;20120;-81
2023/08/29 02:42:43;;;;;;;0.00;0.00;;;;;;;;;;5094976;28;20068;-81
2023/08/29 02:45:09;;;;;;;0.00;0.00;;;;;;;;;;5095183;28;20040;-81
2023/08/29 02:47:35;;;;;;;0.00;0.00;;;;;;;;;;5093441;28;20459;-81
2023/08/29 02:50:03;;;;;;;0.00;0.00;;;;;;;;;;5093426;28;20059;-81
2023/08/29 02:52:29;;;;;;;0.00;0.00;;;;;;;;;;5094401;28;20040;-80
2023/08/29 02:54:55;;;;;;;0.00;0.00;;;;;;;;;;5094361;28;20174;-79
2023/08/29 02:57:21;;;;;;;0.00;0.00;;;;;;;;;;5094223;28;20054;-80
2023/08/29 02:59:47;;;;;;;0.00;0.00;;;;;;;;;;5092909;28;20052;-80
2023/08/29 03:02:13;;;;;;;0.00;0.00;;;;;;;;;;5093857;28;20048;-80
2023/08/29 03:04:39;;;;;;;0.00;0.00;;;;;;;;;;5094036;28;20068;-81
2023/08/29 03:07:05;;;;;;;0.00;0.00;;;;;;;;;;5093744;28;20451;-81
2023/08/29 03:09:31;;;;;;;0.00;0.00;;;;;;;;;;5094111;28;20036;-80
2023/08/29 03:11:57;;;;;;;0.00;0.00;;;;;;;;;;5092571;28;20047;-80
2023/08/29 03:14:23;;;;;;;0.00;0.00;;;;;;;;;;5093777;28;20048;-80
2023/08/29 03:16:49;;;;;;;0.00;0.00;;;;;;;;;;5093775;28;20056;-80
2023/08/29 03:19:15;;;;;;;0.00;0.00;;;;;;;;;;5093615;28;20048;-80
2023/08/29 03:21:42;;;;;;;0.00;0.00;;;;;;;;;;5092761;28;20387;-80
2023/08/29 03:24:08;;;;;;;0.00;0.00;;;;;;;;;;5092199;28;20499;-80
2023/08/29 03:26:34;;;;;;;0.00;0.00;;;;;;;;;;5093583;28;20052;-80
2023/08/29 03:29:00;;;;;;;0.00;0.00;;;;;;;;;;5093594;28;20036;-80
2023/08/29 03:31:26;;;;;;;0.00;0.00;;;;;;;;;;5093437;28;20543;-80
2023/08/29 03:33:52;;;;;;;0.00;0.00;;;;;;;;;;5091968;28;20127;-80
2023/08/29 03:36:19;;;;;;;0.00;0.00;;;;;;;;;;5093602;28;20036;-80
2023/08/29 03:38:45;;;;;;;0.00;0.00;;;;;;;;;;5093443;28;20055;-80
2023/08/29 03:41:11;;;;;;;0.00;0.00;;;;;;;;;;5093475;28;20032;-80
2023/08/29 03:43:38;;;;;;;0.00;0.00;;;;;;;;;;5093192;28;20040;-80
2023/08/29 03:46:05;;;;;;;0.00;0.00;;;;;;;;;;5093389;28;20036;-80
2023/08/29 03:48:31;;;;;;;0.00;0.00;;;;;;;;;;5092892;28;20044;-80
2023/08/29 03:51:06;;;;;;;0.00;0.00;;;;;;;;;;5093240;28;20036;-80
2023/08/29 03:53:38;;;;;;;0.00;0.00;;;;;;;;;;5091925;28;20032;-81
2023/08/29 03:56:05;;;;;;;0.00;0.00;;;;;;;;;;5091697;28;20040;-80
2023/08/29 03:58:31;;;;;;;0.00;0.00;;;;;;;;;;5091828;28;20052;-80
2023/08/29 04:00:58;;;;;;;0.00;0.00;;;;;;;;;;5093159;28;20071;-81
2023/08/29 04:03:24;;;;;;;0.00;0.00;;;;;;;;;;5092673;28;20040;-81
2023/08/29 04:05:50;;;;;;;0.00;0.00;;;;;;;;;;5093073;28;20111;-80
2023/08/29 04:08:16;;;;;;;0.00;0.00;;;;;;;;;;5092762;28;20132;-80
2023/08/29 04:10:42;;;;;;;0.00;0.00;;;;;;;;;;5074691;28;20064;-80
2023/08/29 04:13:10;;;;;;;0.00;0.00;;;;;;;;;;5074910;28;20336;-80
2023/08/29 04:15:36;;;;;;;0.00;0.00;;;;;;;;;;5091778;28;20075;-81
2023/08/29 04:18:03;;;;;;;0.00;0.00;;;;;;;;;;5091416;28;20131;-82
2023/08/29 04:20:29;;;;;;;0.00;0.00;;;;;;;;;;5091347;28;20051;-81
2023/08/29 04:22:56;;;;;;;0.00;0.00;;;;;;;;;;5092717;28;20051;-80
2023/08/29 04:25:24;;;;;;;0.00;0.00;;;;;;;;;;5091503;28;20510;-80
2023/08/29 04:27:50;;;;;;;0.00;0.00;;;;;;;;;;5074181;28;20479;-81
2023/08/29 04:30:16;;;;;;;0.00;0.00;;;;;;;;;;5092359;28;20047;-80
2023/08/29 04:32:42;;;;;;;0.00;0.00;;;;;;;;;;5091156;28;20036;-80
2023/08/29 04:35:08;;;;;;;0.00;0.00;;;;;;;;;;5091268;28;20036;-81
2023/08/29 04:37:35;;;;;;;0.00;0.00;;;;;;;;;;5091252;28;20391;-81
2023/08/29 04:40:01;;;;;;;0.00;0.00;;;;;;;;;;5092309;28;20139;-80
2023/08/29 04:42:27;;;;;;;0.00;0.00;;;;;;;;;;5092464;28;20093;-80
2023/08/29 04:44:54;;;;;;;0.00;0.00;;;;;;;;;;5092243;28;20051;-80
2023/08/29 04:47:20;;;;;;;0.00;0.00;;;;;;;;;;5092427;28;20047;-80
2023/08/29 04:49:47;;;;;;;0.00;0.00;;;;;;;;;;5091028;28;20387;-80
2023/08/29 04:52:12;;;;;;;0.00;0.00;;;;;;;;;;5092377;28;20043;-81
2023/08/29 04:54:38;;;;;;;0.00;0.00;;;;;;;;;;5092205;28;20032;-80
2023/08/29 04:57:05;;;;;;;0.00;0.00;;;;;;;;;;5091069;28;20131;-80
2023/08/29 04:59:31;;;;;;;0.00;0.00;;;;;;;;;;5090670;28;20044;-81
2023/08/29 05:01:57;;;;;;;0.00;0.00;;;;;;;;;;5092365;28;20040;-81
2023/08/29 05:04:23;;;;;;;0.00;0.00;;;;;;;;;;5090741;28;20044;-80
2023/08/29 05:06:49;;;;;;;0.00;0.00;;;;;;;;;;5092628;28;20136;-80
2023/08/29 05:09:15;;;;;;;0.00;0.00;;;;;;;;;;5092314;28;20474;-80
2023/08/29 05:11:41;;;;;;;0.00;0.00;;;;;;;;;;5090806;28;20051;-80
2023/08/29 05:14:07;;;;;;;0.00;0.00;;;;;;;;;;5091693;28;20441;-80
2023/08/29 05:16:33;;;;;;;0.00;0.00;;;;;;;;;;5090854;28;20054;-80
2023/08/29 05:18:59;;;;;;;0.00;0.00;;;;;;;;;;5091912;28;20040;-80
2023/08/29 05:21:25;;;;;;;0.00;0.00;;;;;;;;;;5090614;28;20105;-80
2023/08/29 05:23:51;;;;;;;0.00;0.00;;;;;;;;;;5091892;28;20128;-80
2023/08/29 05:26:17;;;;;;;0.00;0.00;;;;;;;;;;5092387;28;20071;-80
2023/08/29 05:28:43;;;;;;;0.00;0.00;;;;;;;;;;5077598;28;20039;-80
2023/08/29 05:31:09;;;;;;;0.00;0.00;;;;;;;;;;5095022;28;20468;-81
2023/08/29 05:33:35;;;;;;;0.00;0.00;;;;;;;;;;5095803;28;20044;-80
2023/08/29 05:36:01;;;;;;;0.00;0.00;;;;;;;;;;5096244;28;20036;-81
2023/08/29 05:38:27;;;;;;;0.00;0.00;;;;;;;;;;5095966;28;20126;-82
2023/08/29 05:40:53;;;;;;;0.00;0.00;;;;;;;;;;5094937;28;20047;-81
2023/08/29 05:43:19;;;;;;;0.00;0.00;;;;;;;;;;5077914;28;20476;-80
2023/08/29 05:45:45;;;;;;;0.00;0.00;;;;;;;;;;5095863;28;20433;-81
2023/08/29 05:48:11;;;;;;;0.00;0.00;;;;;;;;;;5094161;28;20131;-81
2023/08/29 05:50:41;;;;;;;0.00;0.00;;;;;;;;;;5094133;28;20116;-83
2023/08/29 05:53:07;;;;;;;0.00;0.00;;;;;;;;;;5095582;28;20479;-81
2023/08/29 05:55:33;;;;;;;0.00;0.00;;;;;;;;;;5094035;28;20043;-80
2023/08/29 05:57:59;;;;;;;0.00;0.00;;;;;;;;;;5095445;28;20565;-81
2023/08/29 06:00:26;;;;;;;0.00;0.00;;;;;;;;;;5095336;28;20048;-81
2023/08/29 06:02:52;;;;;;;0.00;0.00;;;;;;;;;;5094275;28;20087;-80
2023/08/29 06:05:18;;;;;;;0.00;0.00;;;;;;;;;;5095057;28;20487;-80
2023/08/29 06:07:46;;;;;;;0.00;0.00;;;;;;;;;;5095406;28;20090;-81
2023/08/29 06:10:12;;;;;;;0.00;0.00;;;;;;;;;;5093590;28;20530;-80
2023/08/29 06:12:38;;;;;;;0.00;0.00;;;;;;;;;;5095312;28;20430;-81
2023/08/29 06:15:05;;;;;;;0.00;0.00;;;;;;;;;;5094727;28;20083;-80
2023/08/29 06:17:31;;;;;;;0.00;0.00;;;;;;;;;;5095155;28;20487;-80
2023/08/29 06:19:57;;;;;;;0.00;0.00;;;;;;;;;;5094831;28;20047;-80
2023/08/29 06:22:23;;;;;;;0.00;0.00;;;;;;;;;;5094987;28;20122;-81
2023/08/29 06:24:50;;;;;;;0.00;0.00;;;;;;;;;;5094657;28;20077;-82
2023/08/29 06:27:16;;;;;;;0.00;0.00;;;;;;;;;;5093586;28;20055;-82
2023/08/29 06:29:42;;;;;;;0.00;0.00;;;;;;;;;;5093147;28;20040;-82
2023/08/29 06:32:08;;;;;;;0.00;0.00;;;;;;;;;;5093375;28;20043;-83
2023/08/29 06:34:34;;;;;;;0.00;0.00;;;;;;;;;;5094764;28;20088;-83
2023/08/29 06:37:00;;;;;;;0.00;0.00;;;;;;;;;;5094734;28;20075;-83
2023/08/29 06:39:28;;;;;;;0.00;0.00;;;;;;;;;;5094754;28;20122;-83
2023/08/29 06:41:54;;;;;;;0.00;0.00;;;;;;;;;;5093795;28;20036;-83
2023/08/29 06:44:20;;;;;;;0.00;0.00;;;;;;;;;;5093337;28;20483;-85
2023/08/29 06:46:46;;;;;;;0.00;0.00;;;;;;;;;;5093846;28;20048;-85
2023/08/29 06:49:12;;;;;;;0.00;0.00;;;;;;;;;;5094747;28;20283;-86
2023/08/29 06:51:38;;;;;;;0.00;0.00;;;;;;;;;;5093598;28;20070;-86
2023/08/29 06:54:04;;;;;;;0.00;0.00;;;;;;;;;;5093309;28;20036;-80
2023/08/29 06:56:30;;;;;;;0.00;0.00;;;;;;;;;;5092941;28;20036;-85
2023/08/29 06:58:55;;;;;;;0.00;0.00;;;;;;;;;;5093091;28;20200;-83
2023/08/29 07:01:21;;;;;;;0.00;0.00;;;;;;;;;;5094211;28;20115;-83
2023/08/29 07:03:47;;;;;;;0.00;0.00;;;;;;;;;;5094286;28;20036;-83
2023/08/29 07:06:13;;;;;;;0.00;0.00;;;;;;;;;;5093135;28;20040;-82
2023/08/29 07:08:40;;;;;;;0.00;0.00;;;;;;;;;;5093223;28;20040;-82
2023/08/29 07:11:07;;;;;;;0.00;0.00;;;;;;;;;;5093840;28;20044;-82
2023/08/29 07:13:33;;;;;;;0.00;0.00;;;;;;;;;;5094278;28;20036;-82
2023/08/29 07:15:59;;;;;;;0.00;0.00;;;;;;;;;;5092264;28;20083;-82
2023/08/29 07:18:25;;;;;;;0.00;0.00;;;;;;;;;;5092575;28;20510;-83
2023/08/29 07:20:51;;;;;;;0.00;0.00;;;;;;;;;;5093660;28;20051;-82
2023/08/29 07:23:17;;;;;;;0.00;0.00;;;;;;;;;;5094125;28;20048;-83
2023/08/29 07:25:44;;;;;;;0.00;0.00;;;;;;;;;;5093642;28;20118;-84
2023/08/29 07:28:13;;;;;;;0.00;0.00;;;;;;;;;;5092579;28;20476;-84
2023/08/29 07:30:43;;;;;;;0.00;0.00;;;;;;;;;;5075222;28;20544;-84
2023/08/29 07:33:10;;;;;;;0.00;0.00;;;;;;;;;;5092463;28;20125;-82
2023/08/29 07:35:37;;;;;;;0.00;0.00;;;;;;;;;;5093844;28;20499;-88
2023/08/29 07:38:03;;;;;;;0.00;0.00;;;;;;;;;;5076354;28;20130;-83
2023/08/29 07:40:30;;;;;;;0.00;0.00;;;;;;;;;;5092206;28;20139;-82
2023/08/29 07:42:56;;;;;;;0.00;0.00;;;;;;;;;;5092565;28;20119;-83
2023/08/29 07:45:22;;;;;;;0.00;0.00;;;;;;;;;;5092194;28;20123;-83
2023/08/29 07:47:48;;;;;;;0.00;0.00;;;;;;;;;;5092293;28;20040;-82
2023/08/29 07:50:14;;;;;;;0.00;0.00;;;;;;;;;;5092217;28;20047;-82
2023/08/29 07:52:40;;;;;;;0.00;0.00;;;;;;;;;;5092480;28;20036;-83
2023/08/29 07:55:07;;;;;;;0.00;0.00;;;;;;;;;;5092331;28;20036;-83
2023/08/29 07:57:33;;;;;;;0.00;0.00;;;;;;;;;;5093702;28;20507;-82
2023/08/29 07:59:59;;;;;;;0.00;0.00;;;;;;;;;;5092070;28;20047;-82
2023/08/29 08:02:26;;;;;;;0.00;0.00;;;;;;;;;;5093282;28;20048;-82
2023/08/29 08:04:52;;;;;;;0.00;0.00;;;;;;;;;;5091999;28;20050;-82
2023/08/29 08:07:17;;;;;;;0.00;0.00;;;;;;;;;;5092985;28;20379;-82
2023/08/29 08:09:43;;;;;;;0.00;0.00;;;;;;;;;;5091836;28;20137;-82
2023/08/29 08:12:09;;;;;;;0.00;0.00;;;;;;;;;;5091610;28;20051;-82
2023/08/29 08:14:35;;;;;;;0.00;0.00;;;;;;;;;;5091677;28;20048;-83
2023/08/29 08:17:01;;;;;;;0.00;0.00;;;;;;;;;;5092734;28;20483;-82
2023/08/29 08:19:29;;;;;;;0.00;0.00;;;;;;;;;;5091490;28;20075;-82
2023/08/29 08:21:55;;;;;;;0.00;0.00;;;;;;;;;;5091361;28;20051;-82
2023/08/29 08:24:21;;;;;;;0.00;0.00;;;;;;;;;;5092240;28;20048;-82
2023/08/29 08:26:47;;;;;;;0.00;0.00;;;;;;;;;;5092660;28;20126;-81
2023/08/29 08:29:13;;;;;;;0.00;0.00;;;;;;;;;;5091547;28;20500;-83
2023/08/29 08:31:39;;;;;;;0.00;0.00;;;;;;;;;;5092644;28;20032;-82
2023/08/29 08:34:05;;;;;;;0.00;0.00;;;;;;;;;;5091442;28;20055;-82
2023/08/29 08:36:31;;;;;;;0.00;0.00;;;;;;;;;;5091135;28;20371;-83
2023/08/29 08:38:58;;;;;;;0.00;0.00;;;;;;;;;;5092860;28;20028;-83
2023/08/29 08:41:25;;;;;;;0.00;0.00;;;;;;;;;;5092425;28;20402;-82
2023/08/29 08:43:52;;;;;;;0.00;0.00;;;;;;;;;;5091982;28;20040;-82
2023/08/29 08:46:18;;;;;;;0.00;0.00;;;;;;;;;;5092336;28;20036;-82
2023/08/29 08:48:44;;;;;;;0.00;0.00;;;;;;;;;;5091194;28;20040;-82
2023/08/29 08:51:10;;;;;;;0.00;0.00;;;;;;;;;;5092393;28;20043;-82
2023/08/29 08:53:37;;;;;;;0.00;0.00;;;;;;;;;;5092402;28;20487;-82
2023/08/29 08:56:03;;;;;;;0.00;0.00;;;;;;;;;;5091121;28;20101;-82
2023/08/29 08:58:29;;;;;;;0.00;0.00;;;;;;;;;;5091197;28;20048;-82
2023/08/29 09:00:55;;;;;;;0.00;0.00;;;;;;;;;;5074591;28;20044;-84
2023/08/29 09:03:21;;;;;;;0.00;0.00;;;;;;;;;;5095390;28;20040;-83
2023/08/29 09:05:47;;;;;;;0.00;0.00;;;;;;;;;;5077937;28;20044;-81
2023/08/29 09:08:13;;;;;;;0.00;0.00;;;;;;;;;;5095026;28;20073;-81
2023/08/29 09:10:39;;;;;;;0.00;0.00;;;;;;;;;;5095080;28;20040;-82
2023/08/29 09:13:05;;;;;;;0.00;0.00;;;;;;;;;;5096355;28;20040;-82
2023/08/29 09:15:34;;;;;;;0.00;0.00;;;;;;;;;;5096287;28;20158;-86
2023/08/29 09:18:00;;;;;;;0.00;0.00;;;;;;;;;;5077859;28;20044;-81
2023/08/29 09:20:29;;;;;;;0.00;0.00;;;;;;;;;;5095079;28;20044;-83
2023/08/29 09:22:56;;;;;;;0.00;0.00;;;;;;;;;;5095958;28;20506;-81
2023/08/29 09:25:24;;;;;;;0.00;0.00;;;;;;;;;;5096156;28;20514;-85
2023/08/29 09:27:50;;;;;;;0.00;0.00;;;;;;;;;;5094451;28;20364;-83
2023/08/29 09:30:17;;;;;;;0.00;0.00;;;;;;;;;;5095873;28;20040;-83
2023/08/29 09:32:44;;;;;;;0.00;0.00;;;;;;;;;;5095545;28;20483;-82
2023/08/29 09:35:14;;;;;;;0.00;0.00;;;;;;;;;;5096120;28;20040;-85
2023/08/29 09:37:50;;;;;;;0.00;0.00;;;;;;;;;;5095784;28;20036;-83
2023/08/29 09:40:19;;;;;;;0.00;0.00;;;;;;;;;;5077532;28;20475;-83
2023/08/29 09:43:01;;;;;;;0.00;0.00;;;;;;;;;;5095418;28;20055;-83
2023/08/29 09:45:31;;;;;;;0.00;0.00;;;;;;;;;;5094265;28;20072;-83
2023/08/29 09:48:03;;;;;;;0.00;0.00;;;;;;;;;;5094102;28;20048;-83
2023/08/29 09:50:30;;;;;;;0.00;0.00;;;;;;;;;;5095558;28;20448;-83
2023/08/29 09:52:57;;;;;;;0.00;0.00;;;;;;;;;;5093969;28;20040;-83
2023/08/29 09:55:24;;;;;;;0.00;0.00;;;;;;;;;;5095426;28;20438;-83
2023/08/29 09:57:52;;;;;;;0.00;0.00;;;;;;;;;;5094188;28;20212;-83
2023/08/29 10:00:18;;;;;;;0.00;0.00;;;;;;;;;;5095370;28;20044;-83
2023/08/29 10:02:46;;;;;;;0.00;0.00;;;;;;;;;;5093797;28;20119;-81
2023/08/29 10:05:13;;;;;;;0.00;0.00;;;;;;;;;;5094290;28;20040;-82
2023/08/29 10:07:43;;;;;;;0.00;0.00;;;;;;;;;;5093639;28;20044;-83
2023/08/29 10:10:10;;;;;;;0.00;0.00;;;;;;;;;;5093811;28;20382;-83
2023/08/29 10:12:36;;;;;;;0.00;0.00;;;;;;;;;;5093939;28;20324;-83
2023/08/29 10:15:04;;;;;;;0.00;0.00;;;;;;;;;;5095302;28;20129;-83
2023/08/29 10:17:30;;;;;;;0.00;0.00;;;;;;;;;;5093793;28;20066;-83
2023/08/29 10:19:57;;;;;;;0.00;0.00;;;;;;;;;;5093683;28;20040;-83
2023/08/29 10:22:24;;;;;;;0.00;0.00;;;;;;;;;;5077043;28;20044;-84
2023/08/29 10:24:51;;;;;;;0.00;0.00;;;;;;;;;;5093664;28;20043;-83
2023/08/29 10:27:17;;;;;;;0.00;0.00;;;;;;;;;;5093522;28;20044;-84
2023/08/29 10:29:44;;;;;;;0.00;0.00;;;;;;;;;;5093771;28;20039;-83
2023/08/29 10:32:09;;;;;;;0.00;0.00;;;;;;;;;;5094836;28;20119;-82
2023/08/29 10:34:36;;;;;;;0.00;0.00;;;;;;;;;;5094865;28;20044;-82
2023/08/29 10:37:03;;;;;;;0.00;0.00;;;;;;;;;;5093188;28;20048;-82
2023/08/29 10:39:30;;;;;;;0.00;0.00;;;;;;;;;;5094742;28;20474;-82
2023/08/29 10:41:57;;;;;;;0.00;0.00;;;;;;;;;;5093181;28;20044;-82
2023/08/29 10:44:24;;;;;;;0.00;0.00;;;;;;;;;;5093188;28;20040;-82
2023/08/29 10:46:54;;;;;;;0.00;0.00;;;;;;;;;;5093250;28;20046;-82
2023/08/29 10:49:23;;;;;;;0.00;0.00;;;;;;;;;;5094374;28;20046;-82
2023/08/29 10:52:08;;;;;;;0.00;0.00;;;;;;;;;;5092811;28;20090;-82
2023/08/29 10:54:34;;;;;;;0.00;0.00;;;;;;;;;;5094564;28;20509;-84
2023/08/29 10:57:00;;;;;;;0.00;0.00;;;;;;;;;;5094199;28;20131;-84
2023/08/29 10:59:36;;;;;;;0.00;0.00;;;;;;;;;;5094283;28;20071;-85
2023/08/29 11:02:21;;;;;;;0.00;0.00;;;;;;;;;;5094134;28;20502;-84
2023/08/29 11:04:47;;;;;;;0.00;0.00;;;;;;;;;;5093540;28;20043;-84
2023/08/29 11:07:24;;;;;;;0.00;0.00;;;;;;;;;;5092698;28;20040;-84
2023/08/29 11:10:10;;;;;;;0.00;0.00;;;;;;;;;;5094018;28;20416;-84
2023/08/29 11:12:36;;;;;;;0.00;0.00;;;;;;;;;;5092723;28;20146;-84
2023/08/29 11:15:02;;;;;;;0.00;0.00;;;;;;;;;;5092459;28;20203;-84
2023/08/29 11:17:28;;;;;;;0.00;0.00;;;;;;;;;;5092461;28;20052;-81
2023/08/29 11:19:58;;;;;;;0.00;0.00;;;;;;;;;;5092748;28;20475;-81
2023/08/29 11:22:30;;;;;;;0.00;0.00;;;;;;;;;;5092389;28;20044;-81
2023/08/29 11:24:56;;;;;;;0.00;0.00;;;;;;;;;;5093301;28;20084;-81
2023/08/29 11:27:23;;;;;;;0.00;0.00;;;;;;;;;;5093568;28;20036;-82
2023/08/29 11:29:49;;;;;;;0.00;0.00;;;;;;;;;;5092706;28;20047;-82
2023/08/29 11:32:17;;;;;;;0.00;0.00;;;;;;;;;;5093559;28;20161;-82
2023/08/29 11:34:43;;;;;;;0.00;0.00;;;;;;;;;;5092511;28;20048;-82
2023/08/29 11:37:12;;;;;;;0.00;0.00;;;;;;;;;;5093371;28;20047;-82
2023/08/29 11:39:38;;;;;;;0.00;0.00;;;;;;;;;;5092147;28;20135;-82
2023/08/29 11:42:04;;;;;;;0.00;0.00;;;;;;;;;;5075267;28;20140;-82
2023/08/29 11:44:33;;;;;;;0.00;0.00;;;;;;;;;;5093243;28;20035;-81
2023/08/29 11:46:59;;;;;;;0.00;0.00;;;;;;;;;;5093232;28;20051;-82
2023/08/29 11:49:25;;;;;;;0.00;0.00;;;;;;;;;;5091909;28;20067;-82
2023/08/29 11:51:52;;;;;;;0.00;0.00;;;;;;;;;;5092211;28;20075;-82
2023/08/29 11:54:38;;;;;;;0.00;0.00;;;;;;;;;;5093355;28;20450;-80
2023/08/29 11:57:06;;;;;;;0.00;0.00;;;;;;;;;;5093426;28;20044;-81
2023/08/29 11:59:32;;;;;;;0.00;0.00;;;;;;;;;;5092981;28;20044;-81
2023/08/29 12:01:58;;;;;;;0.00;0.00;;;;;;;;;;5093247;28;20111;-81
2023/08/29 12:04:24;;;;;;;0.00;0.00;;;;;;;;;;5092890;28;20115;-81
2023/08/29 12:06:50;;;;;;;0.00;0.00;;;;;;;;;;5092026;28;20044;-81
2023/08/29 12:09:23;;;;;;;0.00;0.00;;;;;;;;;;5091993;28;20069;-81
2023/08/29 12:11:49;;;;;;;0.00;0.00;;;;;;;;;;5093466;28;20047;-81
2023/08/29 12:14:15;;;;;;;0.00;0.00;;;;;;;;;;5093055;28;20387;-81
2023/08/29 12:16:41;;;;;;;0.00;0.00;;;;;;;;;;5091953;28;20047;-82
2023/08/29 12:19:12;;;;;;;0.00;0.00;;;;;;;;;;5092633;28;20072;-82
2023/08/29 12:21:38;;;;;;;0.00;0.00;;;;;;;;;;5091905;28;20050;-82
2023/08/29 12:24:11;;;;;;;0.00;0.00;;;;;;;;;;5092654;28;20044;-81
2023/08/29 12:26:37;;;;;;;0.00;0.00;;;;;;;;;;5091373;28;20440;-81
2023/08/29 12:29:03;;;;;;;0.00;0.00;;;;;;;;;;5092700;28;20039;-81
2023/08/29 12:31:29;;;;;;;0.00;0.00;;;;;;;;;;5091452;28;20040;-81
2023/08/29 12:33:55;;;;;;;0.00;0.00;;;;;;;;;;5091615;28;20040;-81
2023/08/29 12:36:21;;;;;;;0.00;0.00;;;;;;;;;;5092509;28;20438;-82
2023/08/29 12:38:47;;;;;;;0.00;0.00;;;;;;;;;;5092607;28;20044;-90
2023/08/29 12:41:16;;;;;;;0.00;0.00;;;;;;;;;;5091287;28;20071;-82
2023/08/29 12:43:42;;;;;;;0.00;0.00;;;;;;;;;;5091060;28;20444;-81
2023/08/29 12:46:09;;;;;;;0.00;0.00;;;;;;;;;;5092674;28;20040;-83
2023/08/29 12:48:35;;;;;;;0.00;0.00;;;;;;;;;;5091066;28;20156;-83
2023/08/29 12:51:02;;;;;;;0.00;0.00;;;;;;;;;;5091526;28;20056;-83
2023/08/29 12:53:28;;;;;;;0.00;0.00;;;;;;;;;;5090915;28;20032;-84
2023/08/29 12:55:54;;;;;;;0.00;0.00;;;;;;;;;;5092438;28;20046;-83
2023/08/29 12:58:20;;;;;;;0.00;0.00;;;;;;;;;;5090974;28;20079;-83
2023/08/29 13:00:46;;;;;;;0.00;0.00;;;;;;;;;;5074475;28;20040;-83
2023/08/29 13:03:12;;;;;;;0.00;0.00;;;;;;;;;;5090801;28;20040;-83
2023/08/29 13:05:38;;;;;;;0.00;0.00;;;;;;;;;;5091242;28;20051;-85
2023/08/29 13:08:04;;;;;;;0.00;0.00;;;;;;;;;;5090842;28;20553;-86
2023/08/29 13:10:30;;;;;;;0.00;0.00;;;;;;;;;;5091234;28;20180;-87
2023/08/29 13:12:57;;;;;;;0.00;0.00;;;;;;;;;;5091682;28;20088;-87
2023/08/29 13:15:23;;;;;;;0.00;0.00;;;;;;;;;;5092566;28;20113;-86
2023/08/29 13:17:50;;;;;;;0.00;0.00;;;;;;;;;;5091103;28;20047;-86
2023/08/29 13:20:17;;;;;;;0.00;0.00;;;;;;;;;;5091094;28;20048;-87
2023/08/29 13:22:45;;;;;;;0.00;0.00;;;;;;;;;;5074451;28;20044;-85
2023/08/29 13:25:11;;;;;;;0.00;0.00;;;;;;;;;;5073942;28;20042;-86
2023/08/29 13:27:37;;;;;;;0.00;0.00;;;;;;;;;;5090962;28;20043;-85
2023/08/29 13:30:04;;;;;;;0.00;0.00;;;;;;;;;;5090812;28;20491;-86
2023/08/29 13:32:33;;;;;;;0.00;0.00;;;;;;;;;;5090831;28;20040;-85
2023/08/29 13:34:59;;;;;;;0.00;0.00;;;;;;;;;;5074013;28;20439;-87
2023/08/29 13:37:25;;;;;;;0.10;0.10;;;;;;;;;;5091359;28;20421;-86
2023/08/29 13:39:58;;;;;;;0.00;0.00;;;;;;;;;;5090505;28;20061;-87
2023/08/29 13:42:24;;;;;;;0.00;0.00;;;;;;;;;;5092162;28;20161;-85
2023/08/29 13:44:51;;;;;;;0.00;0.00;;;;;;;;;;5090882;28;20044;-85
2023/08/29 13:47:17;;;;;;;0.00;0.00;;;;;;;;;;5093553;28;20044;-86
2023/08/29 13:49:43;;;;;;;0.00;0.00;;;;;;;;;;5094152;28;20478;-86
2023/08/29 13:52:09;;;;;;;0.00;0.00;;;;;;;;;;5095741;28;20036;-86
2023/08/29 13:54:35;;;;;;;0.00;0.00;;;;;;;;;;5095422;28;20046;-86
2023/08/29 13:57:01;;;;;;;0.00;0.00;;;;;;;;;;5094361;28;20075;-84
2023/08/29 13:59:27;;;;;;;0.00;0.00;;;;;;;;;;5094348;28;20407;-85
2023/08/29 14:01:53;;;;;;;0.00;0.00;;;;;;;;;;5094434;28;20044;-86
2023/08/29 14:04:19;;;;;;;0.00;0.00;;;;;;;;;;5094085;28;20040;-86
2023/08/29 14:06:45;;;;;;;0.00;0.00;;;;;;;;;;5095649;28;20120;-87
2023/08/29 14:09:11;;;;;;;0.00;0.00;;;;;;;;;;5095332;28;20484;-87
2023/08/29 14:11:38;;;;;;;0.00;0.00;;;;;;;;;;5095460;28;20036;-82
2023/08/29 14:14:04;;;;;;;0.00;0.00;;;;;;;;;;5093405;28;20118;-82
2023/08/29 14:16:30;;;;;;;0.00;0.00;;;;;;;;;;5093777;28;20059;-83
2023/08/29 14:18:56;;;;;;;0.00;0.00;;;;;;;;;;5093571;28;20051;-84
2023/08/29 14:21:22;;;;;;;0.00;0.00;;;;;;;;;;5093670;28;20483;-83
2023/08/29 14:23:48;;;;;;;0.00;0.00;;;;;;;;;;5093285;28;20040;-83
2023/08/29 14:26:14;;;;;;;0.00;0.00;;;;;;;;;;5093795;28;20044;-82
2023/08/29 14:28:40;;;;;;;0.00;0.00;;;;;;;;;;5095044;28;20070;-85
2023/08/29 14:31:06;;;;;;;0.00;0.00;;;;;;;;;;5093249;28;20100;-85
2023/08/29 14:33:32;;;;;;;0.00;0.00;;;;;;;;;;5093822;28;20054;-85
2023/08/29 14:36:00;;;;;;;0.00;0.00;;;;;;;;;;5093532;28;20429;-86
2023/08/29 14:38:26;;;;;;;0.00;0.00;;;;;;;;;;5077045;28;20048;-86
2023/08/29 14:40:52;;;;;;;0.00;0.00;;;;;;;;;;5093152;28;20058;-85